sensor_id;sensor_type;location;lat;lon;timestamp;P1;durP1;ratioP1;P2;durP2;ratioP2
70148;SDS011;57514;52.164;5.282;2023-06-26T00:00:14;12.32;;;7.32;;
70148;SDS011;57514;52.164;5.282;2023-06-26T00:02:52;11.15;;;6.60;;
70148;SDS011;57514;52.164;5.282;2023-06-26T00:05:24;13.80;;;7.50;;
70148;SDS011;57514;52.164;5.282;2023-06-26T00:07:56;12.98;;;8.68;;
70148;SDS011;57514;52.164;5.282;2023-06-26T00:10:27;13.90;;;7.13;;
70148;SDS011;57514;52.164;5.282;2023-06-26T00:13:00;16.38;;;7.55;;
70148;SDS011;57514;52.164;5.282;2023-06-26T00:15:30;12.13;;;7.80;;
70148;SDS011;57514;52.164;5.282;2023-06-26T00:17:58;13.15;;;8.45;;
70148;SDS011;57514;52.164;5.282;2023-06-26T00:20:30;11.52;;;7.28;;
70148;SDS011;57514;52.164;5.282;2023-06-26T00:23:25;12.63;;;7.78;;
70148;SDS011;57514;52.164;5.282;2023-06-26T00:25:54;12.80;;;7.47;;
70148;SDS011;57514;52.164;5.282;2023-06-26T00:28:21;12.63;;;7.25;;
70148;SDS011;57514;52.164;5.282;2023-06-26T00:31:03;12.13;;;8.60;;
70148;SDS011;57514;52.164;5.282;2023-06-26T00:33:30;12.63;;;7.57;;
70148;SDS011;57514;52.164;5.282;2023-06-26T00:35:58;13.65;;;7.32;;
70148;SDS011;57514;52.164;5.282;2023-06-26T00:38:30;11.65;;;7.28;;
70148;SDS011;57514;52.164;5.282;2023-06-26T00:41:08;12.50;;;7.72;;
70148;SDS011;57514;52.164;5.282;2023-06-26T00:43:39;13.88;;;7.80;;
70148;SDS011;57514;52.164;5.282;2023-06-26T00:48:41;12.00;;;7.50;;
70148;SDS011;57514;52.164;5.282;2023-06-26T00:51:11;13.13;;;7.93;;
70148;SDS011;57514;52.164;5.282;2023-06-26T00:53:39;12.45;;;7.90;;
70148;SDS011;57514;52.164;5.282;2023-06-26T00:56:17;13.07;;;7.38;;
70148;SDS011;57514;52.164;5.282;2023-06-26T00:58:44;12.70;;;8.38;;
70148;SDS011;57514;52.164;5.282;2023-06-26T01:01:12;13.05;;;7.80;;
70148;SDS011;57514;52.164;5.282;2023-06-26T01:03:51;11.77;;;7.05;;
70148;SDS011;57514;52.164;5.282;2023-06-26T01:06:33;12.65;;;7.13;;
70148;SDS011;57514;52.164;5.282;2023-06-26T01:09:04;13.18;;;8.50;;
70148;SDS011;57514;52.164;5.282;2023-06-26T01:11:33;13.20;;;7.88;;
70148;SDS011;57514;52.164;5.282;2023-06-26T01:14:14;13.32;;;7.78;;
70148;SDS011;57514;52.164;5.282;2023-06-26T01:16:48;12.05;;;6.72;;
70148;SDS011;57514;52.164;5.282;2023-06-26T01:19:26;10.82;;;6.25;;
70148;SDS011;57514;52.164;5.282;2023-06-26T01:22:16;11.55;;;7.07;;
70148;SDS011;57514;52.164;5.282;2023-06-26T01:27:48;11.65;;;6.28;;
70148;SDS011;57514;52.164;5.282;2023-06-26T01:30:19;12.50;;;5.25;;
70148;SDS011;57514;52.164;5.282;2023-06-26T01:32:58;10.98;;;5.90;;
70148;SDS011;57514;52.164;5.282;2023-06-26T01:35:26;10.88;;;5.47;;
70148;SDS011;57514;52.164;5.282;2023-06-26T01:38:10;11.18;;;5.07;;
70148;SDS011;57514;52.164;5.282;2023-06-26T01:40:38;11.10;;;5.13;;
70148;SDS011;57514;52.164;5.282;2023-06-26T01:43:06;13.60;;;5.15;;
70148;SDS011;57514;52.164;5.282;2023-06-26T01:45:44;12.10;;;5.45;;
70148;SDS011;57514;52.164;5.282;2023-06-26T01:48:13;12.00;;;5.65;;
70148;SDS011;57514;52.164;5.282;2023-06-26T01:50:43;13.05;;;5.13;;
70148;SDS011;57514;52.164;5.282;2023-06-26T01:53:12;11.48;;;5.03;;
70148;SDS011;57514;52.164;5.282;2023-06-26T01:58:15;13.15;;;5.38;;
70148;SDS011;57514;52.164;5.282;2023-06-26T02:07:33;12.18;;;5.18;;
70148;SDS011;57514;52.164;5.282;2023-06-26T02:10:02;11.00;;;5.50;;
70148;SDS011;57514;52.164;5.282;2023-06-26T02:16:37;10.52;;;5.43;;
70148;SDS011;57514;52.164;5.282;2023-06-26T02:19:05;12.48;;;4.75;;
70148;SDS011;57514;52.164;5.282;2023-06-26T02:21:34;12.52;;;5.05;;
70148;SDS011;57514;52.164;5.282;2023-06-26T02:24:02;13.35;;;5.78;;
70148;SDS011;57514;52.164;5.282;2023-06-26T02:29:02;10.77;;;4.80;;
70148;SDS011;57514;52.164;5.282;2023-06-26T02:31:34;11.60;;;5.10;;
70148;SDS011;57514;52.164;5.282;2023-06-26T02:34:02;10.88;;;5.07;;
70148;SDS011;57514;52.164;5.282;2023-06-26T02:36:29;12.05;;;4.95;;
70148;SDS011;57514;52.164;5.282;2023-06-26T02:39:01;11.32;;;4.15;;
70148;SDS011;57514;52.164;5.282;2023-06-26T02:41:29;12.98;;;4.93;;
70148;SDS011;57514;52.164;5.282;2023-06-26T02:43:58;12.27;;;5.25;;
70148;SDS011;57514;52.164;5.282;2023-06-26T02:46:26;13.13;;;5.53;;
70148;SDS011;57514;52.164;5.282;2023-06-26T02:48:54;11.65;;;4.32;;
70148;SDS011;57514;52.164;5.282;2023-06-26T02:58:47;12.63;;;4.75;;
70148;SDS011;57514;52.164;5.282;2023-06-26T03:01:15;13.30;;;5.18;;
70148;SDS011;57514;52.164;5.282;2023-06-26T03:03:43;16.10;;;4.82;;
70148;SDS011;57514;52.164;5.282;2023-06-26T03:06:16;12.98;;;4.95;;
70148;SDS011;57514;52.164;5.282;2023-06-26T03:08:44;13.60;;;4.57;;
70148;SDS011;57514;52.164;5.282;2023-06-26T03:11:23;12.57;;;5.38;;
70148;SDS011;57514;52.164;5.282;2023-06-26T03:13:51;11.73;;;4.15;;
70148;SDS011;57514;52.164;5.282;2023-06-26T03:16:21;15.50;;;5.00;;
70148;SDS011;57514;52.164;5.282;2023-06-26T03:18:49;12.10;;;4.35;;
70148;SDS011;57514;52.164;5.282;2023-06-26T03:21:27;13.02;;;4.30;;
70148;SDS011;57514;52.164;5.282;2023-06-26T03:24:14;16.58;;;5.00;;
70148;SDS011;57514;52.164;5.282;2023-06-26T03:26:44;15.88;;;5.38;;
70148;SDS011;57514;52.164;5.282;2023-06-26T03:31:39;15.73;;;4.70;;
70148;SDS011;57514;52.164;5.282;2023-06-26T03:34:06;16.67;;;5.20;;
70148;SDS011;57514;52.164;5.282;2023-06-26T03:36:34;13.48;;;4.47;;
70148;SDS011;57514;52.164;5.282;2023-06-26T03:39:02;15.32;;;5.35;;
70148;SDS011;57514;52.164;5.282;2023-06-26T03:41:33;14.23;;;4.47;;
70148;SDS011;57514;52.164;5.282;2023-06-26T03:44:00;16.15;;;5.63;;
70148;SDS011;57514;52.164;5.282;2023-06-26T03:46:41;13.02;;;4.22;;
70148;SDS011;57514;52.164;5.282;2023-06-26T03:49:08;14.27;;;5.00;;
70148;SDS011;57514;52.164;5.282;2023-06-26T03:51:37;17.58;;;5.47;;
70148;SDS011;57514;52.164;5.282;2023-06-26T03:54:05;18.30;;;5.10;;
70148;SDS011;57514;52.164;5.282;2023-06-26T03:56:32;17.48;;;5.82;;
70148;SDS011;57514;52.164;5.282;2023-06-26T03:59:00;16.88;;;4.75;;
70148;SDS011;57514;52.164;5.282;2023-06-26T04:01:30;15.85;;;4.85;;
70148;SDS011;57514;52.164;5.282;2023-06-26T04:03:59;16.98;;;5.10;;
70148;SDS011;57514;52.164;5.282;2023-06-26T04:06:27;15.73;;;4.70;;
70148;SDS011;57514;52.164;5.282;2023-06-26T04:08:54;15.60;;;5.60;;
70148;SDS011;57514;52.164;5.282;2023-06-26T04:11:21;12.00;;;4.57;;
70148;SDS011;57514;52.164;5.282;2023-06-26T04:13:48;13.93;;;5.38;;
70148;SDS011;57514;52.164;5.282;2023-06-26T04:16:16;13.93;;;5.07;;
70148;SDS011;57514;52.164;5.282;2023-06-26T04:18:43;15.63;;;5.60;;
70148;SDS011;57514;52.164;5.282;2023-06-26T04:21:11;18.13;;;5.70;;
70148;SDS011;57514;52.164;5.282;2023-06-26T04:23:39;13.18;;;4.95;;
70148;SDS011;57514;52.164;5.282;2023-06-26T04:26:07;15.55;;;5.30;;
70148;SDS011;57514;52.164;5.282;2023-06-26T04:31:53;14.80;;;4.60;;
70148;SDS011;57514;52.164;5.282;2023-06-26T04:34:25;15.00;;;5.20;;
70148;SDS011;57514;52.164;5.282;2023-06-26T04:36:52;17.35;;;5.45;;
70148;SDS011;57514;52.164;5.282;2023-06-26T04:39:23;15.90;;;4.38;;
70148;SDS011;57514;52.164;5.282;2023-06-26T04:41:51;14.90;;;5.18;;
70148;SDS011;57514;52.164;5.282;2023-06-26T04:44:19;15.02;;;4.60;;
70148;SDS011;57514;52.164;5.282;2023-06-26T04:46:46;13.13;;;4.75;;
70148;SDS011;57514;52.164;5.282;2023-06-26T04:49:14;15.45;;;4.30;;
70148;SDS011;57514;52.164;5.282;2023-06-26T04:54:11;14.57;;;4.20;;
70148;SDS011;57514;52.164;5.282;2023-06-26T04:56:38;11.50;;;3.80;;
70148;SDS011;57514;52.164;5.282;2023-06-26T04:59:06;11.07;;;4.22;;
70148;SDS011;57514;52.164;5.282;2023-06-26T05:01:33;13.45;;;4.30;;
70148;SDS011;57514;52.164;5.282;2023-06-26T05:04:01;12.27;;;3.78;;
70148;SDS011;57514;52.164;5.282;2023-06-26T05:06:28;14.00;;;4.05;;
70148;SDS011;57514;52.164;5.282;2023-06-26T05:08:58;10.35;;;3.78;;
70148;SDS011;57514;52.164;5.282;2023-06-26T05:11:25;13.45;;;4.15;;
70148;SDS011;57514;52.164;5.282;2023-06-26T05:13:52;9.52;;;3.58;;
70148;SDS011;57514;52.164;5.282;2023-06-26T05:16:19;11.27;;;4.05;;
70148;SDS011;57514;52.164;5.282;2023-06-26T05:18:47;11.07;;;4.20;;
70148;SDS011;57514;52.164;5.282;2023-06-26T05:21:14;11.90;;;3.75;;
70148;SDS011;57514;52.164;5.282;2023-06-26T05:23:42;12.05;;;3.97;;
70148;SDS011;57514;52.164;5.282;2023-06-26T05:26:13;12.52;;;3.67;;
70148;SDS011;57514;52.164;5.282;2023-06-26T05:28:40;10.80;;;3.85;;
70148;SDS011;57514;52.164;5.282;2023-06-26T05:31:15;9.90;;;3.58;;
70148;SDS011;57514;52.164;5.282;2023-06-26T05:33:43;8.40;;;3.03;;
70148;SDS011;57514;52.164;5.282;2023-06-26T05:36:14;7.80;;;3.25;;
70148;SDS011;57514;52.164;5.282;2023-06-26T05:38:53;8.10;;;3.15;;
70148;SDS011;57514;52.164;5.282;2023-06-26T05:41:27;7.50;;;2.97;;
70148;SDS011;57514;52.164;5.282;2023-06-26T05:43:55;9.57;;;3.58;;
70148;SDS011;57514;52.164;5.282;2023-06-26T05:46:22;7.45;;;2.80;;
70148;SDS011;57514;52.164;5.282;2023-06-26T05:48:52;6.97;;;2.92;;
70148;SDS011;57514;52.164;5.282;2023-06-26T05:51:19;7.43;;;2.80;;
70148;SDS011;57514;52.164;5.282;2023-06-26T05:53:46;7.15;;;3.05;;
70148;SDS011;57514;52.164;5.282;2023-06-26T05:56:14;8.20;;;2.67;;
70148;SDS011;57514;52.164;5.282;2023-06-26T05:58:41;7.15;;;2.60;;
70148;SDS011;57514;52.164;5.282;2023-06-26T06:01:13;6.35;;;2.78;;
70148;SDS011;57514;52.164;5.282;2023-06-26T06:03:40;8.40;;;2.47;;
70148;SDS011;57514;52.164;5.282;2023-06-26T06:06:07;7.25;;;2.60;;
70148;SDS011;57514;52.164;5.282;2023-06-26T06:08:43;6.50;;;2.70;;
70148;SDS011;57514;52.164;5.282;2023-06-26T06:11:14;7.43;;;2.70;;
70148;SDS011;57514;52.164;5.282;2023-06-26T06:13:41;8.95;;;2.83;;
70148;SDS011;57514;52.164;5.282;2023-06-26T06:16:09;8.30;;;3.03;;
70148;SDS011;57514;52.164;5.282;2023-06-26T06:18:36;6.05;;;2.10;;
70148;SDS011;57514;52.164;5.282;2023-06-26T06:21:03;7.78;;;2.67;;
70148;SDS011;57514;52.164;5.282;2023-06-26T06:23:34;6.70;;;2.28;;
70148;SDS011;57514;52.164;5.282;2023-06-26T06:26:03;7.40;;;2.90;;
70148;SDS011;57514;52.164;5.282;2023-06-26T06:28:30;7.57;;;2.70;;
70148;SDS011;57514;52.164;5.282;2023-06-26T06:33:27;6.85;;;2.45;;
70148;SDS011;57514;52.164;5.282;2023-06-26T06:36:38;6.07;;;2.85;;
70148;SDS011;57514;52.164;5.282;2023-06-26T06:39:05;5.88;;;2.67;;
70148;SDS011;57514;52.164;5.282;2023-06-26T06:41:32;8.05;;;2.63;;
70148;SDS011;57514;52.164;5.282;2023-06-26T06:44:04;7.55;;;2.60;;
70148;SDS011;57514;52.164;5.282;2023-06-26T06:46:32;6.97;;;2.58;;
70148;SDS011;57514;52.164;5.282;2023-06-26T06:49:02;9.52;;;2.65;;
70148;SDS011;57514;52.164;5.282;2023-06-26T06:51:33;6.90;;;2.60;;
70148;SDS011;57514;52.164;5.282;2023-06-26T06:54:01;7.18;;;2.78;;
70148;SDS011;57514;52.164;5.282;2023-06-26T06:56:28;7.53;;;2.63;;
70148;SDS011;57514;52.164;5.282;2023-06-26T06:58:55;6.55;;;2.95;;
70148;SDS011;57514;52.164;5.282;2023-06-26T07:01:28;7.47;;;2.97;;
70148;SDS011;57514;52.164;5.282;2023-06-26T07:03:55;9.15;;;3.10;;
70148;SDS011;57514;52.164;5.282;2023-06-26T07:06:24;10.27;;;2.83;;
70148;SDS011;57514;52.164;5.282;2023-06-26T07:08:51;9.02;;;3.17;;
70148;SDS011;57514;52.164;5.282;2023-06-26T07:11:19;7.03;;;3.15;;
70148;SDS011;57514;52.164;5.282;2023-06-26T07:13:48;8.93;;;3.45;;
70148;SDS011;57514;52.164;5.282;2023-06-26T07:16:16;8.48;;;3.08;;
70148;SDS011;57514;52.164;5.282;2023-06-26T07:18:43;8.13;;;3.10;;
70148;SDS011;57514;52.164;5.282;2023-06-26T07:21:10;9.75;;;3.25;;
70148;SDS011;57514;52.164;5.282;2023-06-26T07:23:37;6.55;;;3.08;;
70148;SDS011;57514;52.164;5.282;2023-06-26T07:26:05;6.93;;;2.97;;
70148;SDS011;57514;52.164;5.282;2023-06-26T07:28:32;7.53;;;2.97;;
70148;SDS011;57514;52.164;5.282;2023-06-26T07:30:59;7.82;;;2.85;;
70148;SDS011;57514;52.164;5.282;2023-06-26T07:33:26;6.20;;;2.83;;
70148;SDS011;57514;52.164;5.282;2023-06-26T07:35:54;7.95;;;2.88;;
70148;SDS011;57514;52.164;5.282;2023-06-26T07:38:21;6.72;;;2.65;;
70148;SDS011;57514;52.164;5.282;2023-06-26T07:40:48;9.80;;;3.13;;
70148;SDS011;57514;52.164;5.282;2023-06-26T07:43:16;8.50;;;3.47;;
70148;SDS011;57514;52.164;5.282;2023-06-26T07:45:44;7.97;;;3.00;;
70148;SDS011;57514;52.164;5.282;2023-06-26T07:48:14;8.07;;;2.95;;
70148;SDS011;57514;52.164;5.282;2023-06-26T07:50:41;7.20;;;2.78;;
70148;SDS011;57514;52.164;5.282;2023-06-26T07:53:08;7.35;;;2.95;;
70148;SDS011;57514;52.164;5.282;2023-06-26T07:55:35;7.70;;;2.55;;
70148;SDS011;57514;52.164;5.282;2023-06-26T07:58:03;6.85;;;2.85;;
70148;SDS011;57514;52.164;5.282;2023-06-26T08:00:30;8.02;;;2.75;;
70148;SDS011;57514;52.164;5.282;2023-06-26T08:02:58;7.70;;;2.65;;
70148;SDS011;57514;52.164;5.282;2023-06-26T08:05:25;6.82;;;2.50;;
70148;SDS011;57514;52.164;5.282;2023-06-26T08:07:57;8.45;;;2.58;;
70148;SDS011;57514;52.164;5.282;2023-06-26T08:10:28;9.55;;;2.90;;
70148;SDS011;57514;52.164;5.282;2023-06-26T08:12:56;6.32;;;2.65;;
70148;SDS011;57514;52.164;5.282;2023-06-26T08:15:24;6.18;;;2.25;;
70148;SDS011;57514;52.164;5.282;2023-06-26T08:17:55;8.15;;;2.63;;
70148;SDS011;57514;52.164;5.282;2023-06-26T08:20:23;7.28;;;2.20;;
70148;SDS011;57514;52.164;5.282;2023-06-26T08:22:50;8.15;;;2.53;;
70148;SDS011;57514;52.164;5.282;2023-06-26T08:25:29;6.20;;;2.20;;
70148;SDS011;57514;52.164;5.282;2023-06-26T08:27:56;7.47;;;3.05;;
70148;SDS011;57514;52.164;5.282;2023-06-26T08:30:24;8.55;;;2.58;;
70148;SDS011;57514;52.164;5.282;2023-06-26T08:33:03;9.77;;;2.60;;
70148;SDS011;57514;52.164;5.282;2023-06-26T08:35:33;10.25;;;2.40;;
70148;SDS011;57514;52.164;5.282;2023-06-26T08:38:16;8.23;;;2.40;;
70148;SDS011;57514;52.164;5.282;2023-06-26T08:40:47;6.47;;;2.30;;
70148;SDS011;57514;52.164;5.282;2023-06-26T08:43:23;4.45;;;2.20;;
70148;SDS011;57514;52.164;5.282;2023-06-26T08:45:50;8.05;;;2.00;;
70148;SDS011;57514;52.164;5.282;2023-06-26T08:48:18;6.68;;;2.20;;
70148;SDS011;57514;52.164;5.282;2023-06-26T08:50:49;9.23;;;2.40;;
70148;SDS011;57514;52.164;5.282;2023-06-26T08:56:44;7.72;;;2.10;;
70148;SDS011;57514;52.164;5.282;2023-06-26T08:59:14;7.93;;;2.22;;
70148;SDS011;57514;52.164;5.282;2023-06-26T09:01:42;6.28;;;2.20;;
70148;SDS011;57514;52.164;5.282;2023-06-26T09:04:13;7.88;;;1.95;;
70148;SDS011;57514;52.164;5.282;2023-06-26T09:06:40;6.25;;;2.15;;
70148;SDS011;57514;52.164;5.282;2023-06-26T09:09:08;7.35;;;2.08;;
70148;SDS011;57514;52.164;5.282;2023-06-26T09:11:35;8.02;;;2.33;;
70148;SDS011;57514;52.164;5.282;2023-06-26T09:14:03;6.60;;;2.30;;
70148;SDS011;57514;52.164;5.282;2023-06-26T09:16:38;5.85;;;2.45;;
70148;SDS011;57514;52.164;5.282;2023-06-26T09:19:10;5.55;;;2.13;;
70148;SDS011;57514;52.164;5.282;2023-06-26T09:21:41;4.97;;;1.70;;
70148;SDS011;57514;52.164;5.282;2023-06-26T09:24:10;6.07;;;2.08;;
70148;SDS011;57514;52.164;5.282;2023-06-26T09:26:38;7.30;;;2.47;;
70148;SDS011;57514;52.164;5.282;2023-06-26T09:29:11;6.70;;;2.15;;
70148;SDS011;57514;52.164;5.282;2023-06-26T09:31:39;6.53;;;2.35;;
70148;SDS011;57514;52.164;5.282;2023-06-26T09:34:08;5.93;;;2.17;;
70148;SDS011;57514;52.164;5.282;2023-06-26T09:36:38;6.57;;;2.28;;
70148;SDS011;57514;52.164;5.282;2023-06-26T09:39:08;5.05;;;1.77;;
70148;SDS011;57514;52.164;5.282;2023-06-26T09:41:41;7.45;;;2.00;;
70148;SDS011;57514;52.164;5.282;2023-06-26T09:44:14;6.60;;;2.17;;
70148;SDS011;57514;52.164;5.282;2023-06-26T09:46:44;8.60;;;2.33;;
70148;SDS011;57514;52.164;5.282;2023-06-26T09:49:23;6.05;;;2.20;;
70148;SDS011;57514;52.164;5.282;2023-06-26T09:51:59;9.05;;;2.15;;
70148;SDS011;57514;52.164;5.282;2023-06-26T09:54:32;5.30;;;1.80;;
70148;SDS011;57514;52.164;5.282;2023-06-26T09:57:09;6.03;;;1.95;;
70148;SDS011;57514;52.164;5.282;2023-06-26T09:59:43;5.47;;;1.92;;
70148;SDS011;57514;52.164;5.282;2023-06-26T10:02:14;7.13;;;1.90;;
70148;SDS011;57514;52.164;5.282;2023-06-26T10:04:42;6.80;;;2.00;;
70148;SDS011;57514;52.164;5.282;2023-06-26T10:07:11;7.30;;;1.95;;
70148;SDS011;57514;52.164;5.282;2023-06-26T10:09:43;6.32;;;2.17;;
70148;SDS011;57514;52.164;5.282;2023-06-26T10:12:17;5.82;;;2.03;;
70148;SDS011;57514;52.164;5.282;2023-06-26T10:14:56;6.95;;;2.15;;
70148;SDS011;57514;52.164;5.282;2023-06-26T10:17:25;7.18;;;2.00;;
70148;SDS011;57514;52.164;5.282;2023-06-26T10:19:58;6.65;;;2.00;;
70148;SDS011;57514;52.164;5.282;2023-06-26T10:22:36;7.47;;;1.85;;
70148;SDS011;57514;52.164;5.282;2023-06-26T10:25:17;3.95;;;1.75;;
70148;SDS011;57514;52.164;5.282;2023-06-26T10:27:52;8.07;;;1.77;;
70148;SDS011;57514;52.164;5.282;2023-06-26T10:30:24;5.57;;;1.85;;
70148;SDS011;57514;52.164;5.282;2023-06-26T10:32:55;6.18;;;1.80;;
70148;SDS011;57514;52.164;5.282;2023-06-26T10:35:23;4.50;;;1.80;;
70148;SDS011;57514;52.164;5.282;2023-06-26T10:37:51;5.53;;;1.90;;
70148;SDS011;57514;52.164;5.282;2023-06-26T10:40:25;8.40;;;2.03;;
70148;SDS011;57514;52.164;5.282;2023-06-26T10:43:15;5.45;;;1.70;;
70148;SDS011;57514;52.164;5.282;2023-06-26T10:45:43;6.93;;;1.73;;
70148;SDS011;57514;52.164;5.282;2023-06-26T10:48:19;7.82;;;1.90;;
70148;SDS011;57514;52.164;5.282;2023-06-26T10:50:50;6.70;;;2.08;;
70148;SDS011;57514;52.164;5.282;2023-06-26T10:53:22;6.25;;;2.00;;
70148;SDS011;57514;52.164;5.282;2023-06-26T10:56:02;5.78;;;1.88;;
70148;SDS011;57514;52.164;5.282;2023-06-26T10:58:42;5.30;;;1.98;;
70148;SDS011;57514;52.164;5.282;2023-06-26T11:01:25;8.07;;;1.80;;
70148;SDS011;57514;52.164;5.282;2023-06-26T11:06:40;5.43;;;1.75;;
70148;SDS011;57514;52.164;5.282;2023-06-26T11:09:23;3.58;;;1.60;;
70148;SDS011;57514;52.164;5.282;2023-06-26T11:15:56;5.15;;;1.77;;
70148;SDS011;57514;52.164;5.282;2023-06-26T11:18:27;6.28;;;2.25;;
70148;SDS011;57514;52.164;5.282;2023-06-26T11:28:18;4.10;;;1.65;;
70148;SDS011;57514;52.164;5.282;2023-06-26T11:30:47;5.82;;;1.80;;
70148;SDS011;57514;52.164;5.282;2023-06-26T11:33:15;5.38;;;1.80;;
70148;SDS011;57514;52.164;5.282;2023-06-26T11:35:42;4.10;;;1.70;;
70148;SDS011;57514;52.164;5.282;2023-06-26T11:38:09;5.90;;;2.08;;
70148;SDS011;57514;52.164;5.282;2023-06-26T11:40:39;6.18;;;1.60;;
70148;SDS011;57514;52.164;5.282;2023-06-26T11:43:07;4.38;;;1.65;;
70148;SDS011;57514;52.164;5.282;2023-06-26T11:45:37;2.90;;;1.42;;
70148;SDS011;57514;52.164;5.282;2023-06-26T11:48:06;4.88;;;1.48;;
70148;SDS011;57514;52.164;5.282;2023-06-26T11:50:36;3.92;;;1.50;;
70148;SDS011;57514;52.164;5.282;2023-06-26T11:53:04;5.95;;;1.65;;
70148;SDS011;57514;52.164;5.282;2023-06-26T11:55:40;7.20;;;1.60;;
70148;SDS011;57514;52.164;5.282;2023-06-26T11:58:08;4.88;;;1.45;;
70148;SDS011;57514;52.164;5.282;2023-06-26T12:00:41;6.68;;;1.70;;
70148;SDS011;57514;52.164;5.282;2023-06-26T12:03:10;4.63;;;1.50;;
70148;SDS011;57514;52.164;5.282;2023-06-26T12:05:37;4.93;;;1.58;;
70148;SDS011;57514;52.164;5.282;2023-06-26T12:08:06;5.93;;;1.40;;
70148;SDS011;57514;52.164;5.282;2023-06-26T12:10:34;5.95;;;1.80;;
70148;SDS011;57514;52.164;5.282;2023-06-26T12:13:02;2.90;;;1.23;;
70148;SDS011;57514;52.164;5.282;2023-06-26T12:15:30;2.88;;;1.40;;
70148;SDS011;57514;52.164;5.282;2023-06-26T12:17:57;6.22;;;1.60;;
70148;SDS011;57514;52.164;5.282;2023-06-26T12:20:24;3.88;;;1.40;;
70148;SDS011;57514;52.164;5.282;2023-06-26T12:22:52;4.10;;;1.50;;
70148;SDS011;57514;52.164;5.282;2023-06-26T12:25:23;5.95;;;1.40;;
70148;SDS011;57514;52.164;5.282;2023-06-26T12:27:50;4.45;;;1.20;;
70148;SDS011;57514;52.164;5.282;2023-06-26T12:30:25;8.35;;;1.38;;
70148;SDS011;57514;52.164;5.282;2023-06-26T12:33:12;3.95;;;1.45;;
70148;SDS011;57514;52.164;5.282;2023-06-26T12:35:55;2.65;;;1.20;;
70148;SDS011;57514;52.164;5.282;2023-06-26T12:38:22;3.63;;;1.38;;
70148;SDS011;57514;52.164;5.282;2023-06-26T12:40:50;7.40;;;1.63;;
70148;SDS011;57514;52.164;5.282;2023-06-26T12:43:23;5.22;;;1.50;;
70148;SDS011;57514;52.164;5.282;2023-06-26T12:45:55;6.20;;;1.60;;
70148;SDS011;57514;52.164;5.282;2023-06-26T12:48:42;4.20;;;1.38;;
70148;SDS011;57514;52.164;5.282;2023-06-26T12:51:16;7.07;;;1.85;;
70148;SDS011;57514;52.164;5.282;2023-06-26T12:56:14;4.60;;;1.58;;
70148;SDS011;57514;52.164;5.282;2023-06-26T12:58:45;2.67;;;1.48;;
70148;SDS011;57514;52.164;5.282;2023-06-26T13:01:13;3.15;;;1.25;;
70148;SDS011;57514;52.164;5.282;2023-06-26T13:03:44;8.50;;;1.60;;
70148;SDS011;57514;52.164;5.282;2023-06-26T13:06:15;6.75;;;1.92;;
70148;SDS011;57514;52.164;5.282;2023-06-26T13:12:05;6.93;;;1.52;;
70148;SDS011;57514;52.164;5.282;2023-06-26T13:14:35;5.15;;;1.48;;
70148;SDS011;57514;52.164;5.282;2023-06-26T13:17:20;7.75;;;1.90;;
70148;SDS011;57514;52.164;5.282;2023-06-26T13:20:04;4.50;;;1.45;;
70148;SDS011;57514;52.164;5.282;2023-06-26T13:30:18;3.00;;;1.20;;
70148;SDS011;57514;52.164;5.282;2023-06-26T13:32:45;6.03;;;1.40;;
70148;SDS011;57514;52.164;5.282;2023-06-26T13:35:13;6.18;;;1.65;;
70148;SDS011;57514;52.164;5.282;2023-06-26T13:37:56;3.03;;;1.45;;
70148;SDS011;57514;52.164;5.282;2023-06-26T13:40:35;4.95;;;1.67;;
70148;SDS011;57514;52.164;5.282;2023-06-26T13:43:03;4.38;;;1.73;;
70148;SDS011;57514;52.164;5.282;2023-06-26T13:45:30;5.07;;;1.60;;
70148;SDS011;57514;52.164;5.282;2023-06-26T13:48:12;4.47;;;1.58;;
70148;SDS011;57514;52.164;5.282;2023-06-26T13:50:43;5.63;;;1.63;;
70148;SDS011;57514;52.164;5.282;2023-06-26T13:53:19;5.55;;;1.52;;
70148;SDS011;57514;52.164;5.282;2023-06-26T13:55:47;6.20;;;1.77;;
70148;SDS011;57514;52.164;5.282;2023-06-26T13:58:24;7.13;;;1.65;;
70148;SDS011;57514;52.164;5.282;2023-06-26T14:00:53;3.40;;;1.40;;
70148;SDS011;57514;52.164;5.282;2023-06-26T14:03:28;5.75;;;1.70;;
70148;SDS011;57514;52.164;5.282;2023-06-26T14:05:55;3.13;;;1.50;;
70148;SDS011;57514;52.164;5.282;2023-06-26T14:08:23;4.93;;;1.60;;
70148;SDS011;57514;52.164;5.282;2023-06-26T14:10:50;4.38;;;1.60;;
70148;SDS011;57514;52.164;5.282;2023-06-26T14:13:16;2.83;;;1.52;;
70148;SDS011;57514;52.164;5.282;2023-06-26T14:15:48;6.07;;;1.55;;
70148;SDS011;57514;52.164;5.282;2023-06-26T14:18:19;2.25;;;1.13;;
70148;SDS011;57514;52.164;5.282;2023-06-26T14:20:50;3.15;;;1.40;;
70148;SDS011;57514;52.164;5.282;2023-06-26T14:23:22;4.95;;;1.58;;
70148;SDS011;57514;52.164;5.282;2023-06-26T14:25:53;4.75;;;1.60;;
70148;SDS011;57514;52.164;5.282;2023-06-26T14:28:23;3.85;;;1.40;;
70148;SDS011;57514;52.164;5.282;2023-06-26T14:30:51;4.68;;;1.30;;
70148;SDS011;57514;52.164;5.282;2023-06-26T14:33:19;3.45;;;1.60;;
70148;SDS011;57514;52.164;5.282;2023-06-26T14:35:47;6.57;;;1.70;;
70148;SDS011;57514;52.164;5.282;2023-06-26T14:38:16;5.68;;;1.67;;
70148;SDS011;57514;52.164;5.282;2023-06-26T14:40:43;4.63;;;1.85;;
70148;SDS011;57514;52.164;5.282;2023-06-26T14:43:11;3.75;;;1.60;;
70148;SDS011;57514;52.164;5.282;2023-06-26T14:45:39;4.30;;;1.70;;
70148;SDS011;57514;52.164;5.282;2023-06-26T14:48:07;5.60;;;1.40;;
70148;SDS011;57514;52.164;5.282;2023-06-26T14:50:34;6.13;;;2.00;;
70148;SDS011;57514;52.164;5.282;2023-06-26T14:53:03;3.92;;;1.63;;
70148;SDS011;57514;52.164;5.282;2023-06-26T14:55:31;4.47;;;1.40;;
70148;SDS011;57514;52.164;5.282;2023-06-26T14:57:59;3.55;;;1.33;;
70148;SDS011;57514;52.164;5.282;2023-06-26T15:00:26;4.45;;;1.60;;
70148;SDS011;57514;52.164;5.282;2023-06-26T15:02:53;2.78;;;1.40;;
70148;SDS011;57514;52.164;5.282;2023-06-26T15:05:24;5.20;;;1.33;;
70148;SDS011;57514;52.164;5.282;2023-06-26T15:07:51;6.05;;;1.60;;
70148;SDS011;57514;52.164;5.282;2023-06-26T15:10:19;7.88;;;1.77;;
70148;SDS011;57514;52.164;5.282;2023-06-26T15:12:46;5.88;;;1.65;;
70148;SDS011;57514;52.164;5.282;2023-06-26T15:15:13;7.82;;;1.90;;
70148;SDS011;57514;52.164;5.282;2023-06-26T15:17:43;6.60;;;1.80;;
70148;SDS011;57514;52.164;5.282;2023-06-26T15:20:11;6.72;;;1.40;;
70148;SDS011;57514;52.164;5.282;2023-06-26T15:22:38;4.45;;;1.80;;
70148;SDS011;57514;52.164;5.282;2023-06-26T15:25:09;5.05;;;1.70;;
70148;SDS011;57514;52.164;5.282;2023-06-26T15:27:41;3.97;;;1.55;;
70148;SDS011;57514;52.164;5.282;2023-06-26T15:30:08;4.20;;;1.65;;
70148;SDS011;57514;52.164;5.282;2023-06-26T15:32:38;8.25;;;1.60;;
70148;SDS011;57514;52.164;5.282;2023-06-26T15:35:35;5.65;;;2.20;;
70148;SDS011;57514;52.164;5.282;2023-06-26T15:38:04;8.10;;;1.70;;
70148;SDS011;57514;52.164;5.282;2023-06-26T15:46:37;5.70;;;1.50;;
70148;SDS011;57514;52.164;5.282;2023-06-26T15:49:07;4.88;;;1.70;;
70148;SDS011;57514;52.164;5.282;2023-06-26T15:58:43;3.75;;;1.27;;
70148;SDS011;57514;52.164;5.282;2023-06-26T16:01:17;6.38;;;1.77;;
70148;SDS011;57514;52.164;5.282;2023-06-26T16:07:37;3.38;;;1.45;;
70148;SDS011;57514;52.164;5.282;2023-06-26T16:10:22;5.68;;;1.30;;
70148;SDS011;57514;52.164;5.282;2023-06-26T16:13:29;4.78;;;1.65;;
70148;SDS011;57514;52.164;5.282;2023-06-26T16:15:59;3.88;;;1.67;;
70148;SDS011;57514;52.164;5.282;2023-06-26T16:23:02;3.88;;;1.60;;
70148;SDS011;57514;52.164;5.282;2023-06-26T16:25:32;6.50;;;1.55;;
70148;SDS011;57514;52.164;5.282;2023-06-26T16:28:15;4.78;;;1.50;;
70148;SDS011;57514;52.164;5.282;2023-06-26T16:30:58;6.22;;;1.50;;
70148;SDS011;57514;52.164;5.282;2023-06-26T16:33:39;3.67;;;1.40;;
70148;SDS011;57514;52.164;5.282;2023-06-26T16:36:11;4.15;;;1.70;;